<?xml version="1.0" encoding="UTF-8" standalone="no" ?>
<gpx xmlns="http://www.topografix.com/GPX/1/1" xmlns:xsi="http://www.w3.org/2001/XMLSchema-instance" xsi:schemaLocation="http://www.topografix.com/GPX/1/1 http://www.topografix.com/GPX/1/1/gpx.xsd" version="1.1" creator="VisuGPX - https://www.visugpx.com">
  <metadata>
    <name>Pic du Pichaley depuis Espiaube</name>
  </metadata>
  <trk>
    <name><![CDATA[Autour d'Espiaube]]></name>
    <trkseg>
      <trkpt lat="42.82518" lon="0.25855">
        <ele>1629.71</ele>
        <time>2019-11-09T07:28:28Z</time>
      </trkpt>
      <trkpt lat="42.82533" lon="0.25871">
        <ele>1625.95</ele>
        <time>2019-11-09T07:29:05Z</time>
      </trkpt>
      <trkpt lat="42.82545" lon="0.25851">
        <ele>1620.88</ele>
        <time>2019-11-09T07:32:23Z</time>
      </trkpt>
      <trkpt lat="42.82549" lon="0.25827">
        <ele>1618.44</ele>
        <time>2019-11-09T07:32:40Z</time>
      </trkpt>
      <trkpt lat="42.82567" lon="0.25823">
        <ele>1613.66</ele>
        <time>2019-11-09T07:33:14Z</time>
      </trkpt>
      <trkpt lat="42.82568" lon="0.25798">
        <ele>1610</ele>
        <time>2019-11-09T07:33:47Z</time>
      </trkpt>
      <trkpt lat="42.82533" lon="0.25786">
        <ele>1607.17</ele>
        <time>2019-11-09T07:34:30Z</time>
      </trkpt>
      <trkpt lat="42.825" lon="0.25844">
        <ele>1606.15</ele>
        <time>2019-11-09T07:36:34Z</time>
      </trkpt>
      <trkpt lat="42.82484" lon="0.25889">
        <ele>1606.44</ele>
        <time>2019-11-09T07:37:23Z</time>
      </trkpt>
      <trkpt lat="42.8246" lon="0.25925">
        <ele>1606.99</ele>
        <time>2019-11-09T07:38:09Z</time>
      </trkpt>
      <trkpt lat="42.82445" lon="0.25971">
        <ele>1608</ele>
        <time>2019-11-09T07:38:59Z</time>
      </trkpt>
      <trkpt lat="42.82447" lon="0.26021">
        <ele>1609.3</ele>
        <time>2019-11-09T07:39:51Z</time>
      </trkpt>
      <trkpt lat="42.82424" lon="0.26089">
        <ele>1612.02</ele>
        <time>2019-11-09T07:40:58Z</time>
      </trkpt>
      <trkpt lat="42.82422" lon="0.26114">
        <ele>1613.03</ele>
        <time>2019-11-09T07:41:23Z</time>
      </trkpt>
      <trkpt lat="42.82403" lon="0.26156">
        <ele>1614.75</ele>
        <time>2019-11-09T07:42:02Z</time>
      </trkpt>
      <trkpt lat="42.82399" lon="0.26181">
        <ele>1616.14</ele>
        <time>2019-11-09T07:42:21Z</time>
      </trkpt>
      <trkpt lat="42.82385" lon="0.26197">
        <ele>1618.48</ele>
        <time>2019-11-09T07:42:50Z</time>
      </trkpt>
      <trkpt lat="42.82376" lon="0.26175">
        <ele>1621.29</ele>
        <time>2019-11-09T07:43:24Z</time>
      </trkpt>
      <trkpt lat="42.82384" lon="0.26077">
        <ele>1631.25</ele>
        <time>2019-11-09T07:45:22Z</time>
      </trkpt>
      <trkpt lat="42.82378" lon="0.26054">
        <ele>1633.48</ele>
        <time>2019-11-09T07:45:47Z</time>
      </trkpt>
      <trkpt lat="42.82387" lon="0.26032">
        <ele>1635.56</ele>
        <time>2019-11-09T07:46:07Z</time>
      </trkpt>
      <trkpt lat="42.82388" lon="0.26007">
        <ele>1639.94</ele>
        <time>2019-11-09T07:48:32Z</time>
      </trkpt>
      <trkpt lat="42.82372" lon="0.25908">
        <ele>1647.22</ele>
        <time>2019-11-09T07:50:15Z</time>
      </trkpt>
      <trkpt lat="42.82374" lon="0.25884">
        <ele>1650.77</ele>
        <time>2019-11-09T07:50:54Z</time>
      </trkpt>
      <trkpt lat="42.82402" lon="0.2582">
        <ele>1662.64</ele>
        <time>2019-11-09T07:52:08Z</time>
      </trkpt>
      <trkpt lat="42.82399" lon="0.25795">
        <ele>1665.8</ele>
        <time>2019-11-09T07:52:26Z</time>
      </trkpt>
      <trkpt lat="42.82382" lon="0.25752">
        <ele>1672.96</ele>
        <time>2019-11-09T07:53:17Z</time>
      </trkpt>
      <trkpt lat="42.82369" lon="0.25653">
        <ele>1685.77</ele>
        <time>2019-11-09T07:55:23Z</time>
      </trkpt>
      <trkpt lat="42.82344" lon="0.25588">
        <ele>1695.79</ele>
        <time>2019-11-09T07:57:11Z</time>
      </trkpt>
      <trkpt lat="42.82344" lon="0.25563">
        <ele>1697.88</ele>
        <time>2019-11-09T07:57:35Z</time>
      </trkpt>
      <trkpt lat="42.82327" lon="0.25518">
        <ele>1707.75</ele>
        <time>2019-11-09T07:58:57Z</time>
      </trkpt>
      <trkpt lat="42.82333" lon="0.25469">
        <ele>1722.58</ele>
        <time>2019-11-09T08:00:19Z</time>
      </trkpt>
      <trkpt lat="42.82344" lon="0.25421">
        <ele>1734.26</ele>
        <time>2019-11-09T08:01:20Z</time>
      </trkpt>
      <trkpt lat="42.82376" lon="0.25359">
        <ele>1744.53</ele>
        <time>2019-11-09T08:02:42Z</time>
      </trkpt>
      <trkpt lat="42.82403" lon="0.25323">
        <ele>1749.44</ele>
        <time>2019-11-09T08:03:38Z</time>
      </trkpt>
      <trkpt lat="42.82434" lon="0.253">
        <ele>1754.94</ele>
        <time>2019-11-09T08:04:41Z</time>
      </trkpt>
      <trkpt lat="42.82456" lon="0.25259">
        <ele>1770.66</ele>
        <time>2019-11-09T08:10:38Z</time>
      </trkpt>
      <trkpt lat="42.82471" lon="0.25245">
        <ele>1772.38</ele>
        <time>2019-11-09T08:10:58Z</time>
      </trkpt>
      <trkpt lat="42.82482" lon="0.25225">
        <ele>1773.89</ele>
        <time>2019-11-09T08:11:24Z</time>
      </trkpt>
      <trkpt lat="42.82486" lon="0.25201">
        <ele>1774.88</ele>
        <time>2019-11-09T08:11:49Z</time>
      </trkpt>
      <trkpt lat="42.8251" lon="0.25163">
        <ele>1776.5</ele>
        <time>2019-11-09T08:12:40Z</time>
      </trkpt>
      <trkpt lat="42.82514" lon="0.25112">
        <ele>1777.89</ele>
        <time>2019-11-09T08:13:22Z</time>
      </trkpt>
      <trkpt lat="42.82526" lon="0.25065">
        <ele>1779.9</ele>
        <time>2019-11-09T08:14:06Z</time>
      </trkpt>
      <trkpt lat="42.82527" lon="0.25015">
        <ele>1783.1</ele>
        <time>2019-11-09T08:14:49Z</time>
      </trkpt>
      <trkpt lat="42.8254" lon="0.24969">
        <ele>1788.48</ele>
        <time>2019-11-09T08:15:47Z</time>
      </trkpt>
      <trkpt lat="42.82548" lon="0.24896">
        <ele>1796.87</ele>
        <time>2019-11-09T08:17:27Z</time>
      </trkpt>
      <trkpt lat="42.8254" lon="0.24848">
        <ele>1803.82</ele>
        <time>2019-11-09T08:18:36Z</time>
      </trkpt>
      <trkpt lat="42.82549" lon="0.24826">
        <ele>1808.06</ele>
        <time>2019-11-09T08:19:14Z</time>
      </trkpt>
      <trkpt lat="42.82524" lon="0.24733">
        <ele>1825.41</ele>
        <time>2019-11-09T08:21:45Z</time>
      </trkpt>
      <trkpt lat="42.82538" lon="0.24687">
        <ele>1832.71</ele>
        <time>2019-11-09T08:22:57Z</time>
      </trkpt>
      <trkpt lat="42.82536" lon="0.24663">
        <ele>1834.42</ele>
        <time>2019-11-09T08:23:19Z</time>
      </trkpt>
      <trkpt lat="42.82529" lon="0.24639">
        <ele>1835.99</ele>
        <time>2019-11-09T08:23:45Z</time>
      </trkpt>
      <trkpt lat="42.82514" lon="0.24625">
        <ele>1838.36</ele>
        <time>2019-11-09T08:24:23Z</time>
      </trkpt>
      <trkpt lat="42.82497" lon="0.2462">
        <ele>1841.17</ele>
        <time>2019-11-09T08:25:03Z</time>
      </trkpt>
      <trkpt lat="42.82495" lon="0.24546">
        <ele>1865.95</ele>
        <time>2019-11-09T08:27:13Z</time>
      </trkpt>
      <trkpt lat="42.82477" lon="0.24373">
        <ele>1904.99</ele>
        <time>2019-11-09T08:33:09Z</time>
      </trkpt>
      <trkpt lat="42.82466" lon="0.24353">
        <ele>1908.29</ele>
        <time>2019-11-09T08:34:04Z</time>
      </trkpt>
      <trkpt lat="42.82471" lon="0.24329">
        <ele>1911.48</ele>
        <time>2019-11-09T08:34:45Z</time>
      </trkpt>
      <trkpt lat="42.82463" lon="0.24307">
        <ele>1914.74</ele>
        <time>2019-11-09T08:35:33Z</time>
      </trkpt>
      <trkpt lat="42.82467" lon="0.24283">
        <ele>1921.96</ele>
        <time>2019-11-09T08:37:04Z</time>
      </trkpt>
      <trkpt lat="42.82497" lon="0.24255">
        <ele>1934.46</ele>
        <time>2019-11-09T08:38:22Z</time>
      </trkpt>
      <trkpt lat="42.82503" lon="0.24232">
        <ele>1942.8</ele>
        <time>2019-11-09T08:39:10Z</time>
      </trkpt>
      <trkpt lat="42.82484" lon="0.24162">
        <ele>1959.99</ele>
        <time>2019-11-09T08:40:46Z</time>
      </trkpt>
      <trkpt lat="42.82483" lon="0.24137">
        <ele>1964.8</ele>
        <time>2019-11-09T08:41:20Z</time>
      </trkpt>
      <trkpt lat="42.82495" lon="0.24091">
        <ele>1973.55</ele>
        <time>2019-11-09T08:42:28Z</time>
      </trkpt>
      <trkpt lat="42.82492" lon="0.24041">
        <ele>1988.49</ele>
        <time>2019-11-09T08:43:48Z</time>
      </trkpt>
      <trkpt lat="42.82502" lon="0.2402">
        <ele>1994.82</ele>
        <time>2019-11-09T08:44:33Z</time>
      </trkpt>
      <trkpt lat="42.82488" lon="0.24003">
        <ele>2000.66</ele>
        <time>2019-11-09T08:45:10Z</time>
      </trkpt>
      <trkpt lat="42.82493" lon="0.23979">
        <ele>2010.36</ele>
        <time>2019-11-09T08:46:18Z</time>
      </trkpt>
      <trkpt lat="42.82483" lon="0.23959">
        <ele>2015.96</ele>
        <time>2019-11-09T08:47:11Z</time>
      </trkpt>
      <trkpt lat="42.82464" lon="0.23963">
        <ele>2019.06</ele>
        <time>2019-11-09T08:47:41Z</time>
      </trkpt>
      <trkpt lat="42.8245" lon="0.23948">
        <ele>2027.96</ele>
        <time>2019-11-09T08:48:29Z</time>
      </trkpt>
      <trkpt lat="42.82451" lon="0.23923">
        <ele>2034.89</ele>
        <time>2019-11-09T08:49:09Z</time>
      </trkpt>
      <trkpt lat="42.82464" lon="0.23905">
        <ele>2039.57</ele>
        <time>2019-11-09T08:49:42Z</time>
      </trkpt>
      <trkpt lat="42.82448" lon="0.23892">
        <ele>2045.8</ele>
        <time>2019-11-09T08:50:45Z</time>
      </trkpt>
      <trkpt lat="42.82432" lon="0.23903">
        <ele>2050.29</ele>
        <time>2019-11-09T08:51:18Z</time>
      </trkpt>
      <trkpt lat="42.82425" lon="0.2388">
        <ele>2060.3</ele>
        <time>2019-11-09T08:52:21Z</time>
      </trkpt>
      <trkpt lat="42.82408" lon="0.23872">
        <ele>2076.35</ele>
        <time>2019-11-09T08:54:27Z</time>
      </trkpt>
      <trkpt lat="42.82397" lon="0.23824">
        <ele>2102.34</ele>
        <time>2019-11-09T08:57:08Z</time>
      </trkpt>
      <trkpt lat="42.82399" lon="0.23799">
        <ele>2106.98</ele>
        <time>2019-11-09T08:57:45Z</time>
      </trkpt>
      <trkpt lat="42.82421" lon="0.2376">
        <ele>2112.57</ele>
        <time>2019-11-09T08:59:15Z</time>
      </trkpt>
      <trkpt lat="42.82422" lon="0.23736">
        <ele>2115.83</ele>
        <time>2019-11-09T09:00:00Z</time>
      </trkpt>
      <trkpt lat="42.8241" lon="0.23717">
        <ele>2129.17</ele>
        <time>2019-11-09T09:00:58Z</time>
      </trkpt>
      <trkpt lat="42.82421" lon="0.2367">
        <ele>2146.54</ele>
        <time>2019-11-09T09:02:30Z</time>
      </trkpt>
      <trkpt lat="42.82455" lon="0.23651">
        <ele>2158.38</ele>
        <time>2019-11-09T09:04:40Z</time>
      </trkpt>
      <trkpt lat="42.82469" lon="0.23606">
        <ele>2165.7</ele>
        <time>2019-11-09T09:06:07Z</time>
      </trkpt>
      <trkpt lat="42.82459" lon="0.23585">
        <ele>2167.57</ele>
        <time>2019-11-09T09:06:39Z</time>
      </trkpt>
      <trkpt lat="42.82441" lon="0.2358">
        <ele>2183.29</ele>
        <time>2019-11-09T09:12:09Z</time>
      </trkpt>
      <trkpt lat="42.8245" lon="0.23558">
        <ele>2193.98</ele>
        <time>2019-11-09T09:15:23Z</time>
      </trkpt>
      <trkpt lat="42.82467" lon="0.23548">
        <ele>2195.33</ele>
        <time>2019-11-09T09:15:56Z</time>
      </trkpt>
      <trkpt lat="42.8248" lon="0.2353">
        <ele>2196.43</ele>
        <time>2019-11-09T09:16:44Z</time>
      </trkpt>
      <trkpt lat="42.82496" lon="0.23485">
        <ele>2197.34</ele>
        <time>2019-11-09T09:18:05Z</time>
      </trkpt>
      <trkpt lat="42.82512" lon="0.23475">
        <ele>2199.64</ele>
        <time>2019-11-09T09:19:51Z</time>
      </trkpt>
      <trkpt lat="42.82526" lon="0.2349">
        <ele>2204.6</ele>
        <time>2019-11-09T09:21:32Z</time>
      </trkpt>
      <trkpt lat="42.82547" lon="0.23451">
        <ele>2213.5</ele>
        <time>2019-11-09T09:22:53Z</time>
      </trkpt>
      <trkpt lat="42.82557" lon="0.23377">
        <ele>2237.14</ele>
        <time>2019-11-09T09:26:04Z</time>
      </trkpt>
      <trkpt lat="42.82553" lon="0.23353">
        <ele>2239.1</ele>
        <time>2019-11-09T09:26:28Z</time>
      </trkpt>
      <trkpt lat="42.8257" lon="0.23342">
        <ele>2242.1</ele>
        <time>2019-11-09T09:27:08Z</time>
      </trkpt>
      <trkpt lat="42.8258" lon="0.23319">
        <ele>2244.43</ele>
        <time>2019-11-09T09:27:51Z</time>
      </trkpt>
      <trkpt lat="42.826" lon="0.23319">
        <ele>2245.2</ele>
        <time>2019-11-09T09:27:58Z</time>
      </trkpt>
      <trkpt lat="42.82633" lon="0.23297">
        <ele>2256.09</ele>
        <time>2019-11-09T09:29:46Z</time>
      </trkpt>
      <trkpt lat="42.82797" lon="0.23329">
        <ele>2269.08</ele>
        <time>2019-11-09T09:33:30Z</time>
      </trkpt>
      <trkpt lat="42.82839" lon="0.23376">
        <ele>2270.26</ele>
        <time>2019-11-09T09:34:54Z</time>
      </trkpt>
      <trkpt lat="42.82857" lon="0.23379">
        <ele>2270.58</ele>
        <time>2019-11-09T09:35:19Z</time>
      </trkpt>
      <trkpt lat="42.82921" lon="0.2343">
        <ele>2271.27</ele>
        <time>2019-11-09T09:37:01Z</time>
      </trkpt>
      <trkpt lat="42.82955" lon="0.2345">
        <ele>2271.35</ele>
        <time>2019-11-09T09:37:41Z</time>
      </trkpt>
      <trkpt lat="42.83011" lon="0.23461">
        <ele>2270.88</ele>
        <time>2019-11-09T09:39:00Z</time>
      </trkpt>
      <trkpt lat="42.83102" lon="0.23439">
        <ele>2266.89</ele>
        <time>2019-11-09T09:40:35Z</time>
      </trkpt>
      <trkpt lat="42.83157" lon="0.23447">
        <ele>2260.59</ele>
        <time>2019-11-09T09:41:37Z</time>
      </trkpt>
      <trkpt lat="42.83173" lon="0.23436">
        <ele>2257.8</ele>
        <time>2019-11-09T09:42:05Z</time>
      </trkpt>
      <trkpt lat="42.83195" lon="0.23341">
        <ele>2241.88</ele>
        <time>2019-11-09T09:44:46Z</time>
      </trkpt>
      <trkpt lat="42.83171" lon="0.23273">
        <ele>2238.51</ele>
        <time>2019-11-09T09:45:58Z</time>
      </trkpt>
      <trkpt lat="42.83168" lon="0.23249">
        <ele>2237.94</ele>
        <time>2019-11-09T09:46:25Z</time>
      </trkpt>
      <trkpt lat="42.83161" lon="0.2315">
        <ele>2236.66</ele>
        <time>2019-11-09T09:48:07Z</time>
      </trkpt>
      <trkpt lat="42.83168" lon="0.23076">
        <ele>2235.61</ele>
        <time>2019-11-09T09:49:16Z</time>
      </trkpt>
      <trkpt lat="42.83163" lon="0.23027">
        <ele>2234.77</ele>
        <time>2019-11-09T09:50:17Z</time>
      </trkpt>
      <trkpt lat="42.83176" lon="0.23009">
        <ele>2234.41</ele>
        <time>2019-11-09T09:50:38Z</time>
      </trkpt>
      <trkpt lat="42.8321" lon="0.22993">
        <ele>2233.64</ele>
        <time>2019-11-09T09:51:31Z</time>
      </trkpt>
      <trkpt lat="42.83392" lon="0.23007">
        <ele>2227.41</ele>
        <time>2019-11-09T09:56:18Z</time>
      </trkpt>
      <trkpt lat="42.8348" lon="0.23044">
        <ele>2224.47</ele>
        <time>2019-11-09T09:59:14Z</time>
      </trkpt>
      <trkpt lat="42.83498" lon="0.23044">
        <ele>2223.86</ele>
        <time>2019-11-09T09:59:36Z</time>
      </trkpt>
      <trkpt lat="42.83551" lon="0.23026">
        <ele>2221.8</ele>
        <time>2019-11-09T10:01:02Z</time>
      </trkpt>
      <trkpt lat="42.83586" lon="0.23042">
        <ele>2220.97</ele>
        <time>2019-11-09T10:02:11Z</time>
      </trkpt>
      <trkpt lat="42.83598" lon="0.2306">
        <ele>2216.95</ele>
        <time>2019-11-09T10:16:03Z</time>
      </trkpt>
      <trkpt lat="42.83616" lon="0.23065">
        <ele>2216.51</ele>
        <time>2019-11-09T10:17:31Z</time>
      </trkpt>
      <trkpt lat="42.83671" lon="0.23054">
        <ele>2214.23</ele>
        <time>2019-11-09T10:18:58Z</time>
      </trkpt>
      <trkpt lat="42.83682" lon="0.23035">
        <ele>2213.22</ele>
        <time>2019-11-09T10:19:26Z</time>
      </trkpt>
      <trkpt lat="42.837" lon="0.23029">
        <ele>2212.16</ele>
        <time>2019-11-09T10:19:56Z</time>
      </trkpt>
      <trkpt lat="42.83718" lon="0.23033">
        <ele>2210.91</ele>
        <time>2019-11-09T10:20:33Z</time>
      </trkpt>
      <trkpt lat="42.83736" lon="0.23026">
        <ele>2210</ele>
        <time>2019-11-09T10:21:03Z</time>
      </trkpt>
      <trkpt lat="42.83765" lon="0.22998">
        <ele>2208.34</ele>
        <time>2019-11-09T10:21:59Z</time>
      </trkpt>
      <trkpt lat="42.83769" lon="0.22974">
        <ele>2207.57</ele>
        <time>2019-11-09T10:22:28Z</time>
      </trkpt>
      <trkpt lat="42.83786" lon="0.22964">
        <ele>2206.72</ele>
        <time>2019-11-09T10:23:03Z</time>
      </trkpt>
      <trkpt lat="42.83841" lon="0.22961">
        <ele>2204.89</ele>
        <time>2019-11-09T10:24:30Z</time>
      </trkpt>
      <trkpt lat="42.83894" lon="0.22972">
        <ele>2203.06</ele>
        <time>2019-11-09T10:26:53Z</time>
      </trkpt>
      <trkpt lat="42.84004" lon="0.22973">
        <ele>2203.07</ele>
        <time>2019-11-09T10:30:23Z</time>
      </trkpt>
      <trkpt lat="42.84112" lon="0.22995">
        <ele>2205.81</ele>
        <time>2019-11-09T10:33:31Z</time>
      </trkpt>
      <trkpt lat="42.84167" lon="0.22992">
        <ele>2208.1</ele>
        <time>2019-11-09T10:35:07Z</time>
      </trkpt>
      <trkpt lat="42.84202" lon="0.23006">
        <ele>2209.12</ele>
        <time>2019-11-09T10:36:07Z</time>
      </trkpt>
      <trkpt lat="42.84256" lon="0.22994">
        <ele>2211.33</ele>
        <time>2019-11-09T10:37:52Z</time>
      </trkpt>
      <trkpt lat="42.84297" lon="0.22946">
        <ele>2217.19</ele>
        <time>2019-11-09T10:44:17Z</time>
      </trkpt>
      <trkpt lat="42.84314" lon="0.22936">
        <ele>2217.7</ele>
        <time>2019-11-09T10:44:58Z</time>
      </trkpt>
      <trkpt lat="42.8433" lon="0.22948">
        <ele>2218.54</ele>
        <time>2019-11-09T10:45:35Z</time>
      </trkpt>
      <trkpt lat="42.84338" lon="0.22971">
        <ele>2219.29</ele>
        <time>2019-11-09T10:46:03Z</time>
      </trkpt>
      <trkpt lat="42.84359" lon="0.2293">
        <ele>2221.79</ele>
        <time>2019-11-09T10:47:29Z</time>
      </trkpt>
      <trkpt lat="42.84427" lon="0.22965">
        <ele>2226.76</ele>
        <time>2019-11-09T10:50:04Z</time>
      </trkpt>
      <trkpt lat="42.84445" lon="0.22963">
        <ele>2229.38</ele>
        <time>2019-11-09T10:50:50Z</time>
      </trkpt>
      <trkpt lat="42.84459" lon="0.22946">
        <ele>2231.75</ele>
        <time>2019-11-09T10:51:21Z</time>
      </trkpt>
      <trkpt lat="42.845" lon="0.22836">
        <ele>2238.36</ele>
        <time>2019-11-09T10:54:08Z</time>
      </trkpt>
      <trkpt lat="42.8451" lon="0.22736">
        <ele>2243.41</ele>
        <time>2019-11-09T10:55:36Z</time>
      </trkpt>
      <trkpt lat="42.84505" lon="0.22687">
        <ele>2245.28</ele>
        <time>2019-11-09T10:56:21Z</time>
      </trkpt>
      <trkpt lat="42.84507" lon="0.22662">
        <ele>2246.64</ele>
        <time>2019-11-09T10:56:55Z</time>
      </trkpt>
      <trkpt lat="42.84551" lon="0.22552">
        <ele>2252.44</ele>
        <time>2019-11-09T10:59:04Z</time>
      </trkpt>
      <trkpt lat="42.84576" lon="0.22516">
        <ele>2260.56</ele>
        <time>2019-11-09T11:02:31Z</time>
      </trkpt>
      <trkpt lat="42.84556" lon="0.22421">
        <ele>2270.13</ele>
        <time>2019-11-09T11:06:13Z</time>
      </trkpt>
      <trkpt lat="42.84566" lon="0.22372">
        <ele>2272.59</ele>
        <time>2019-11-09T11:06:58Z</time>
      </trkpt>
      <trkpt lat="42.84598" lon="0.22347">
        <ele>2278.16</ele>
        <time>2019-11-09T11:07:51Z</time>
      </trkpt>
      <trkpt lat="42.84634" lon="0.22353">
        <ele>2289.89</ele>
        <time>2019-11-09T11:09:54Z</time>
      </trkpt>
      <trkpt lat="42.84671" lon="0.223">
        <ele>2296.14</ele>
        <time>2019-11-09T11:11:50Z</time>
      </trkpt>
      <trkpt lat="42.84676" lon="0.22276">
        <ele>2298.12</ele>
        <time>2019-11-09T11:12:21Z</time>
      </trkpt>
      <trkpt lat="42.84702" lon="0.22241">
        <ele>2302.99</ele>
        <time>2019-11-09T11:13:24Z</time>
      </trkpt>
      <trkpt lat="42.84733" lon="0.22216">
        <ele>2311.81</ele>
        <time>2019-11-09T11:15:11Z</time>
      </trkpt>
      <trkpt lat="42.84806" lon="0.22205">
        <ele>2329.3</ele>
        <time>2019-11-09T11:19:01Z</time>
      </trkpt>
      <trkpt lat="42.84835" lon="0.22143">
        <ele>2345.3</ele>
        <time>2019-11-09T11:21:07Z</time>
      </trkpt>
      <trkpt lat="42.84833" lon="0.22118">
        <ele>2364.05</ele>
        <time>2019-11-09T11:28:24Z</time>
      </trkpt>
      <trkpt lat="42.84863" lon="0.22091">
        <ele>2369.7</ele>
        <time>2019-11-09T11:29:27Z</time>
      </trkpt>
      <trkpt lat="42.84899" lon="0.22094">
        <ele>2376.04</ele>
        <time>2019-11-09T11:30:46Z</time>
      </trkpt>
      <trkpt lat="42.84969" lon="0.22067">
        <ele>2396.23</ele>
        <time>2019-11-09T11:36:26Z</time>
      </trkpt>
      <trkpt lat="42.84985" lon="0.22053">
        <ele>2400.41</ele>
        <time>2019-11-09T11:37:11Z</time>
      </trkpt>
      <trkpt lat="42.85003" lon="0.22052">
        <ele>2403.09</ele>
        <time>2019-11-09T11:37:40Z</time>
      </trkpt>
      <trkpt lat="42.85016" lon="0.22034">
        <ele>2405.73</ele>
        <time>2019-11-09T11:38:08Z</time>
      </trkpt>
      <trkpt lat="42.85011" lon="0.21935">
        <ele>2434.11</ele>
        <time>2019-11-09T11:43:31Z</time>
      </trkpt>
      <trkpt lat="42.85" lon="0.21956">
        <ele>2460.91</ele>
        <time>2019-11-09T11:52:44Z</time>
      </trkpt>
      <trkpt lat="42.85003" lon="0.21981">
        <ele>2461.55</ele>
        <time>2019-11-09T11:52:51Z</time>
      </trkpt>
      <trkpt lat="42.84996" lon="0.22004">
        <ele>2462.22</ele>
        <time>2019-11-09T11:53:00Z</time>
      </trkpt>
      <trkpt lat="42.85" lon="0.22028">
        <ele>2463.44</ele>
        <time>2019-11-09T12:04:21Z</time>
      </trkpt>
      <trkpt lat="42.84981" lon="0.22026">
        <ele>2463.43</ele>
        <time>2019-11-09T12:04:32Z</time>
      </trkpt>
      <trkpt lat="42.84968" lon="0.22072">
        <ele>2463.36</ele>
        <time>2019-11-09T12:05:09Z</time>
      </trkpt>
      <trkpt lat="42.84938" lon="0.22105">
        <ele>2463.14</ele>
        <time>2019-11-09T12:06:23Z</time>
      </trkpt>
      <trkpt lat="42.84866" lon="0.22126">
        <ele>2461.63</ele>
        <time>2019-11-09T12:07:22Z</time>
      </trkpt>
      <trkpt lat="42.84849" lon="0.22139">
        <ele>2460.79</ele>
        <time>2019-11-09T12:07:44Z</time>
      </trkpt>
      <trkpt lat="42.84822" lon="0.22209">
        <ele>2457.95</ele>
        <time>2019-11-09T12:08:00Z</time>
      </trkpt>
      <trkpt lat="42.84768" lon="0.22241">
        <ele>2453.22</ele>
        <time>2019-11-09T12:08:14Z</time>
      </trkpt>
      <trkpt lat="42.84751" lon="0.22353">
        <ele>2436.22</ele>
        <time>2019-11-09T12:10:54Z</time>
      </trkpt>
      <trkpt lat="42.84694" lon="0.22372">
        <ele>2422.81</ele>
        <time>2019-11-09T12:11:08Z</time>
      </trkpt>
      <trkpt lat="42.84642" lon="0.22404">
        <ele>2411.23</ele>
        <time>2019-11-09T12:11:53Z</time>
      </trkpt>
      <trkpt lat="42.84621" lon="0.22409">
        <ele>2409.95</ele>
        <time>2019-11-09T12:11:59Z</time>
      </trkpt>
      <trkpt lat="42.84605" lon="0.22427">
        <ele>2403.51</ele>
        <time>2019-11-09T12:12:11Z</time>
      </trkpt>
      <trkpt lat="42.84598" lon="0.2245">
        <ele>2380.82</ele>
        <time>2019-11-09T12:13:20Z</time>
      </trkpt>
      <trkpt lat="42.84594" lon="0.22501">
        <ele>2374.71</ele>
        <time>2019-11-09T12:13:31Z</time>
      </trkpt>
      <trkpt lat="42.8456" lon="0.22531">
        <ele>2371.96</ele>
        <time>2019-11-09T12:13:44Z</time>
      </trkpt>
      <trkpt lat="42.84444" lon="0.22583">
        <ele>2343.26</ele>
        <time>2019-11-09T12:15:01Z</time>
      </trkpt>
      <trkpt lat="42.84432" lon="0.22564">
        <ele>2339.54</ele>
        <time>2019-11-09T12:15:27Z</time>
      </trkpt>
      <trkpt lat="42.84426" lon="0.22541">
        <ele>2335.29</ele>
        <time>2019-11-09T12:15:58Z</time>
      </trkpt>
      <trkpt lat="42.844" lon="0.22503">
        <ele>2331.5</ele>
        <time>2019-11-09T12:16:25Z</time>
      </trkpt>
      <trkpt lat="42.84364" lon="0.22475">
        <ele>2325.15</ele>
        <time>2019-11-09T12:16:36Z</time>
      </trkpt>
      <trkpt lat="42.84255" lon="0.22466">
        <ele>2304.48</ele>
        <time>2019-11-09T12:19:31Z</time>
      </trkpt>
      <trkpt lat="42.84201" lon="0.22474">
        <ele>2295.51</ele>
        <time>2019-11-09T12:21:08Z</time>
      </trkpt>
      <trkpt lat="42.84171" lon="0.22502">
        <ele>2292.23</ele>
        <time>2019-11-09T12:22:05Z</time>
      </trkpt>
      <trkpt lat="42.84112" lon="0.22525">
        <ele>2290.93</ele>
        <time>2019-11-09T12:22:22Z</time>
      </trkpt>
      <trkpt lat="42.84096" lon="0.2257">
        <ele>2288.8</ele>
        <time>2019-11-09T12:23:23Z</time>
      </trkpt>
      <trkpt lat="42.84098" lon="0.2262">
        <ele>2287.81</ele>
        <time>2019-11-09T12:24:00Z</time>
      </trkpt>
      <trkpt lat="42.84081" lon="0.2267">
        <ele>2287.3</ele>
        <time>2019-11-09T12:24:40Z</time>
      </trkpt>
      <trkpt lat="42.84065" lon="0.22682">
        <ele>2286.58</ele>
        <time>2019-11-09T12:24:46Z</time>
      </trkpt>
      <trkpt lat="42.8404" lon="0.22718">
        <ele>2285.11</ele>
        <time>2019-11-09T12:25:32Z</time>
      </trkpt>
      <trkpt lat="42.8395" lon="0.22802">
        <ele>2281.36</ele>
        <time>2019-11-09T12:28:03Z</time>
      </trkpt>
      <trkpt lat="42.83891" lon="0.22898">
        <ele>2278.71</ele>
        <time>2019-11-09T12:30:45Z</time>
      </trkpt>
      <trkpt lat="42.83776" lon="0.22978">
        <ele>2267.65</ele>
        <time>2019-11-09T12:34:15Z</time>
      </trkpt>
      <trkpt lat="42.83724" lon="0.23">
        <ele>2260.04</ele>
        <time>2019-11-09T12:35:50Z</time>
      </trkpt>
      <trkpt lat="42.83712" lon="0.23019">
        <ele>2252.73</ele>
        <time>2019-11-09T12:36:35Z</time>
      </trkpt>
      <trkpt lat="42.83662" lon="0.23048">
        <ele>2234.79</ele>
        <time>2019-11-09T12:38:11Z</time>
      </trkpt>
      <trkpt lat="42.83626" lon="0.23053">
        <ele>2204.18</ele>
        <time>2019-11-09T12:40:44Z</time>
      </trkpt>
      <trkpt lat="42.83592" lon="0.23071">
        <ele>2192.69</ele>
        <time>2019-11-09T13:14:01Z</time>
      </trkpt>
      <trkpt lat="42.83578" lon="0.23056">
        <ele>2193.31</ele>
        <time>2019-11-09T13:14:54Z</time>
      </trkpt>
      <trkpt lat="42.8356" lon="0.2305">
        <ele>2193.36</ele>
        <time>2019-11-09T13:15:28Z</time>
      </trkpt>
      <trkpt lat="42.83524" lon="0.23048">
        <ele>2193.33</ele>
        <time>2019-11-09T13:16:31Z</time>
      </trkpt>
      <trkpt lat="42.8347" lon="0.23057">
        <ele>2193.45</ele>
        <time>2019-11-09T13:18:39Z</time>
      </trkpt>
      <trkpt lat="42.83402" lon="0.23021">
        <ele>2193.02</ele>
        <time>2019-11-09T13:21:32Z</time>
      </trkpt>
      <trkpt lat="42.83312" lon="0.23009">
        <ele>2193.56</ele>
        <time>2019-11-09T13:24:40Z</time>
      </trkpt>
      <trkpt lat="42.83221" lon="0.23024">
        <ele>2197.53</ele>
        <time>2019-11-09T13:28:24Z</time>
      </trkpt>
      <trkpt lat="42.83187" lon="0.2304">
        <ele>2199.22</ele>
        <time>2019-11-09T13:29:26Z</time>
      </trkpt>
      <trkpt lat="42.83179" lon="0.23114">
        <ele>2204.46</ele>
        <time>2019-11-09T13:32:23Z</time>
      </trkpt>
      <trkpt lat="42.8319" lon="0.23134">
        <ele>2205.66</ele>
        <time>2019-11-09T13:33:00Z</time>
      </trkpt>
      <trkpt lat="42.83191" lon="0.23183">
        <ele>2207.8</ele>
        <time>2019-11-09T13:34:26Z</time>
      </trkpt>
      <trkpt lat="42.83186" lon="0.23206">
        <ele>2209.08</ele>
        <time>2019-11-09T13:35:15Z</time>
      </trkpt>
      <trkpt lat="42.83204" lon="0.23276">
        <ele>2211.26</ele>
        <time>2019-11-09T13:37:29Z</time>
      </trkpt>
      <trkpt lat="42.83259" lon="0.23407">
        <ele>2214.87</ele>
        <time>2019-11-09T13:40:48Z</time>
      </trkpt>
      <trkpt lat="42.8328" lon="0.23476">
        <ele>2216.56</ele>
        <time>2019-11-09T13:42:20Z</time>
      </trkpt>
      <trkpt lat="42.83288" lon="0.23524">
        <ele>2217.4</ele>
        <time>2019-11-09T13:43:17Z</time>
      </trkpt>
      <trkpt lat="42.83303" lon="0.2357">
        <ele>2217.83</ele>
        <time>2019-11-09T13:44:18Z</time>
      </trkpt>
      <trkpt lat="42.83317" lon="0.23669">
        <ele>2218.32</ele>
        <time>2019-11-09T13:46:06Z</time>
      </trkpt>
      <trkpt lat="42.83334" lon="0.23662">
        <ele>2217.39</ele>
        <time>2019-11-09T13:52:25Z</time>
      </trkpt>
      <trkpt lat="42.83395" lon="0.23675">
        <ele>2217.09</ele>
        <time>2019-11-09T13:52:51Z</time>
      </trkpt>
      <trkpt lat="42.83437" lon="0.23673">
        <ele>2216.92</ele>
        <time>2019-11-09T13:53:01Z</time>
      </trkpt>
      <trkpt lat="42.83494" lon="0.23697">
        <ele>2216.69</ele>
        <time>2019-11-09T13:53:21Z</time>
      </trkpt>
      <trkpt lat="42.83503" lon="0.23721">
        <ele>2216.43</ele>
        <time>2019-11-09T13:53:59Z</time>
      </trkpt>
      <trkpt lat="42.83495" lon="0.23744">
        <ele>2216.04</ele>
        <time>2019-11-09T13:54:06Z</time>
      </trkpt>
      <trkpt lat="42.83482" lon="0.23762">
        <ele>2215.82</ele>
        <time>2019-11-09T13:54:28Z</time>
      </trkpt>
      <trkpt lat="42.83486" lon="0.23789">
        <ele>2215.4</ele>
        <time>2019-11-09T13:54:35Z</time>
      </trkpt>
      <trkpt lat="42.8347" lon="0.23871">
        <ele>2196.07</ele>
        <time>2019-11-09T13:54:55Z</time>
      </trkpt>
      <trkpt lat="42.83453" lon="0.23879">
        <ele>2189.41</ele>
        <time>2019-11-09T13:55:00Z</time>
      </trkpt>
      <trkpt lat="42.83451" lon="0.23905">
        <ele>2183.81</ele>
        <time>2019-11-09T13:55:07Z</time>
      </trkpt>
      <trkpt lat="42.83438" lon="0.23928">
        <ele>2173.76</ele>
        <time>2019-11-09T13:55:16Z</time>
      </trkpt>
      <trkpt lat="42.83421" lon="0.23919">
        <ele>2167.79</ele>
        <time>2019-11-09T13:55:51Z</time>
      </trkpt>
      <trkpt lat="42.83428" lon="0.2397">
        <ele>2157.39</ele>
        <time>2019-11-09T13:56:19Z</time>
      </trkpt>
      <trkpt lat="42.83402" lon="0.2404">
        <ele>2132.28</ele>
        <time>2019-11-09T13:56:45Z</time>
      </trkpt>
      <trkpt lat="42.83353" lon="0.24086">
        <ele>2098.24</ele>
        <time>2019-11-09T13:58:29Z</time>
      </trkpt>
      <trkpt lat="42.83366" lon="0.24105">
        <ele>2095.45</ele>
        <time>2019-11-09T13:58:37Z</time>
      </trkpt>
      <trkpt lat="42.8336" lon="0.24155">
        <ele>2087.19</ele>
        <time>2019-11-09T13:58:57Z</time>
      </trkpt>
      <trkpt lat="42.83369" lon="0.24178">
        <ele>2080.39</ele>
        <time>2019-11-09T13:59:04Z</time>
      </trkpt>
      <trkpt lat="42.83354" lon="0.24197">
        <ele>2078.14</ele>
        <time>2019-11-09T13:59:12Z</time>
      </trkpt>
      <trkpt lat="42.8336" lon="0.24222">
        <ele>2070.88</ele>
        <time>2019-11-09T13:59:18Z</time>
      </trkpt>
      <trkpt lat="42.83347" lon="0.24239">
        <ele>2065.77</ele>
        <time>2019-11-09T13:59:27Z</time>
      </trkpt>
      <trkpt lat="42.83344" lon="0.24264">
        <ele>2061.88</ele>
        <time>2019-11-09T13:59:32Z</time>
      </trkpt>
      <trkpt lat="42.83361" lon="0.24278">
        <ele>2057.78</ele>
        <time>2019-11-09T13:59:40Z</time>
      </trkpt>
      <trkpt lat="42.83364" lon="0.24329">
        <ele>2045.91</ele>
        <time>2019-11-09T13:59:51Z</time>
      </trkpt>
      <trkpt lat="42.83317" lon="0.24418">
        <ele>2032.73</ele>
        <time>2019-11-09T14:00:09Z</time>
      </trkpt>
      <trkpt lat="42.83299" lon="0.24412">
        <ele>2018.16</ele>
        <time>2019-11-09T14:02:11Z</time>
      </trkpt>
      <trkpt lat="42.83291" lon="0.24433">
        <ele>2014.2</ele>
        <time>2019-11-09T14:02:37Z</time>
      </trkpt>
      <trkpt lat="42.83296" lon="0.24458">
        <ele>2009.38</ele>
        <time>2019-11-09T14:03:03Z</time>
      </trkpt>
      <trkpt lat="42.83293" lon="0.24487">
        <ele>2006.03</ele>
        <time>2019-11-09T14:03:09Z</time>
      </trkpt>
      <trkpt lat="42.83271" lon="0.24527">
        <ele>2002.44</ele>
        <time>2019-11-09T14:03:22Z</time>
      </trkpt>
      <trkpt lat="42.83234" lon="0.24549">
        <ele>1999.59</ele>
        <time>2019-11-09T14:03:30Z</time>
      </trkpt>
      <trkpt lat="42.8321" lon="0.2462">
        <ele>1996.38</ele>
        <time>2019-11-09T14:03:59Z</time>
      </trkpt>
      <trkpt lat="42.83218" lon="0.24649">
        <ele>1991.91</ele>
        <time>2019-11-09T14:04:05Z</time>
      </trkpt>
      <trkpt lat="42.8321" lon="0.24674">
        <ele>1988.76</ele>
        <time>2019-11-09T14:04:11Z</time>
      </trkpt>
      <trkpt lat="42.83197" lon="0.24691">
        <ele>1986.43</ele>
        <time>2019-11-09T14:04:19Z</time>
      </trkpt>
      <trkpt lat="42.83142" lon="0.24713">
        <ele>1964.94</ele>
        <time>2019-11-09T14:06:40Z</time>
      </trkpt>
      <trkpt lat="42.8306" lon="0.24707">
        <ele>1959.11</ele>
        <time>2019-11-09T14:07:19Z</time>
      </trkpt>
      <trkpt lat="42.83017" lon="0.24719">
        <ele>1955.68</ele>
        <time>2019-11-09T14:07:29Z</time>
      </trkpt>
      <trkpt lat="42.82982" lon="0.24758">
        <ele>1952.35</ele>
        <time>2019-11-09T14:07:39Z</time>
      </trkpt>
      <trkpt lat="42.82956" lon="0.24804">
        <ele>1949.86</ele>
        <time>2019-11-09T14:07:47Z</time>
      </trkpt>
      <trkpt lat="42.82942" lon="0.24852">
        <ele>1931.84</ele>
        <time>2019-11-09T14:08:47Z</time>
      </trkpt>
      <trkpt lat="42.82919" lon="0.24893">
        <ele>1928.71</ele>
        <time>2019-11-09T14:08:58Z</time>
      </trkpt>
      <trkpt lat="42.82875" lon="0.24944">
        <ele>1912.17</ele>
        <time>2019-11-09T14:09:14Z</time>
      </trkpt>
      <trkpt lat="42.82855" lon="0.24958">
        <ele>1906.97</ele>
        <time>2019-11-09T14:09:19Z</time>
      </trkpt>
      <trkpt lat="42.82795" lon="0.24978">
        <ele>1899.26</ele>
        <time>2019-11-09T14:09:35Z</time>
      </trkpt>
      <trkpt lat="42.82735" lon="0.24988">
        <ele>1869.18</ele>
        <time>2019-11-09T14:11:18Z</time>
      </trkpt>
      <trkpt lat="42.82658" lon="0.24987">
        <ele>1856.84</ele>
        <time>2019-11-09T14:11:51Z</time>
      </trkpt>
      <trkpt lat="42.82639" lon="0.24978">
        <ele>1849.37</ele>
        <time>2019-11-09T14:12:15Z</time>
      </trkpt>
      <trkpt lat="42.82601" lon="0.24981">
        <ele>1839.94</ele>
        <time>2019-11-09T14:12:41Z</time>
      </trkpt>
      <trkpt lat="42.82591" lon="0.25002">
        <ele>1836.74</ele>
        <time>2019-11-09T14:12:52Z</time>
      </trkpt>
      <trkpt lat="42.82618" lon="0.25043">
        <ele>1831.17</ele>
        <time>2019-11-09T14:13:14Z</time>
      </trkpt>
      <trkpt lat="42.82634" lon="0.25088">
        <ele>1823.48</ele>
        <time>2019-11-09T14:13:35Z</time>
      </trkpt>
      <trkpt lat="42.82635" lon="0.25114">
        <ele>1820.68</ele>
        <time>2019-11-09T14:13:44Z</time>
      </trkpt>
      <trkpt lat="42.82629" lon="0.25138">
        <ele>1815.77</ele>
        <time>2019-11-09T14:14:22Z</time>
      </trkpt>
      <trkpt lat="42.82616" lon="0.25156">
        <ele>1812.85</ele>
        <time>2019-11-09T14:14:33Z</time>
      </trkpt>
      <trkpt lat="42.82628" lon="0.25175">
        <ele>1788.96</ele>
        <time>2019-11-09T14:17:27Z</time>
      </trkpt>
      <trkpt lat="42.82644" lon="0.25184">
        <ele>1787.41</ele>
        <time>2019-11-09T14:17:39Z</time>
      </trkpt>
      <trkpt lat="42.8265" lon="0.25208">
        <ele>1782.99</ele>
        <time>2019-11-09T14:18:07Z</time>
      </trkpt>
      <trkpt lat="42.82623" lon="0.25272">
        <ele>1765.18</ele>
        <time>2019-11-09T14:18:53Z</time>
      </trkpt>
      <trkpt lat="42.82635" lon="0.25292">
        <ele>1760.3</ele>
        <time>2019-11-09T14:19:03Z</time>
      </trkpt>
      <trkpt lat="42.82636" lon="0.25318">
        <ele>1748</ele>
        <time>2019-11-09T14:19:16Z</time>
      </trkpt>
      <trkpt lat="42.82656" lon="0.25366">
        <ele>1706.77</ele>
        <time>2019-11-09T14:21:04Z</time>
      </trkpt>
      <trkpt lat="42.82636" lon="0.25446">
        <ele>1650.35</ele>
        <time>2019-11-09T14:21:30Z</time>
      </trkpt>
      <trkpt lat="42.82628" lon="0.25509">
        <ele>1648.23</ele>
        <time>2019-11-09T14:21:33Z</time>
      </trkpt>
      <trkpt lat="42.82595" lon="0.2558">
        <ele>1646.57</ele>
        <time>2019-11-09T14:21:45Z</time>
      </trkpt>
      <trkpt lat="42.82584" lon="0.25629">
        <ele>1645.19</ele>
        <time>2019-11-09T14:21:52Z</time>
      </trkpt>
      <trkpt lat="42.82578" lon="0.25682">
        <ele>1644.02</ele>
        <time>2019-11-09T14:22:01Z</time>
      </trkpt>
      <trkpt lat="42.82585" lon="0.25709">
        <ele>1643.17</ele>
        <time>2019-11-09T14:22:06Z</time>
      </trkpt>
      <trkpt lat="42.82584" lon="0.25738">
        <ele>1641.85</ele>
        <time>2019-11-09T14:22:12Z</time>
      </trkpt>
      <trkpt lat="42.82569" lon="0.2581">
        <ele>1639.84</ele>
        <time>2019-11-09T14:22:37Z</time>
      </trkpt>
      <trkpt lat="42.82569" lon="0.25861">
        <ele>1633.48</ele>
        <time>2019-11-09T14:23:29Z</time>
      </trkpt>
      <trkpt lat="42.82563" lon="0.25884">
        <ele>1630.53</ele>
        <time>2019-11-09T14:23:51Z</time>
      </trkpt>
      <trkpt lat="42.82548" lon="0.25898">
        <ele>1628.31</ele>
        <time>2019-11-09T14:24:10Z</time>
      </trkpt>
    </trkseg>
  </trk>
</gpx>